sensor_id;sensor_type;location;lat;lon;timestamp;P1;durP1;ratioP1;P2;durP2;ratioP2
16352;SDS011;8286;51.274;9.542;2022-07-22T00:02:23;2.63;;;1.92;;
16352;SDS011;8286;51.274;9.542;2022-07-22T00:04:49;2.10;;;1.90;;
16352;SDS011;8286;51.274;9.542;2022-07-22T00:07:16;2.35;;;2.17;;
16352;SDS011;8286;51.274;9.542;2022-07-22T00:09:43;2.20;;;2.05;;
16352;SDS011;8286;51.274;9.542;2022-07-22T00:12:10;3.40;;;2.10;;
16352;SDS011;8286;51.274;9.542;2022-07-22T00:14:36;2.53;;;2.33;;
16352;SDS011;8286;51.274;9.542;2022-07-22T00:17:03;2.30;;;2.10;;
16352;SDS011;8286;51.274;9.542;2022-07-22T00:19:31;2.72;;;2.28;;
16352;SDS011;8286;51.274;9.542;2022-07-22T00:21:58;2.58;;;2.38;;
16352;SDS011;8286;51.274;9.542;2022-07-22T00:24:24;2.60;;;2.40;;
16352;SDS011;8286;51.274;9.542;2022-07-22T00:26:51;2.30;;;2.00;;
16352;SDS011;8286;51.274;9.542;2022-07-22T00:29:18;3.20;;;2.17;;
16352;SDS011;8286;51.274;9.542;2022-07-22T00:31:44;2.17;;;2.05;;
16352;SDS011;8286;51.274;9.542;2022-07-22T00:34:11;5.57;;;2.38;;
16352;SDS011;8286;51.274;9.542;2022-07-22T00:36:39;2.78;;;2.42;;
16352;SDS011;8286;51.274;9.542;2022-07-22T00:39:06;3.40;;;2.72;;
16352;SDS011;8286;51.274;9.542;2022-07-22T00:41:32;2.70;;;2.50;;
16352;SDS011;8286;51.274;9.542;2022-07-22T00:44:00;3.42;;;2.88;;
16352;SDS011;8286;51.274;9.542;2022-07-22T00:46:28;3.38;;;3.05;;
16352;SDS011;8286;51.274;9.542;2022-07-22T00:48:56;3.45;;;3.15;;
16352;SDS011;8286;51.274;9.542;2022-07-22T00:51:24;3.63;;;3.33;;
16352;SDS011;8286;51.274;9.542;2022-07-22T00:53:53;6.50;;;3.30;;
16352;SDS011;8286;51.274;9.542;2022-07-22T00:56:22;3.85;;;3.28;;
16352;SDS011;8286;51.274;9.542;2022-07-22T00:58:50;3.72;;;3.15;;
16352;SDS011;8286;51.274;9.542;2022-07-22T01:01:18;3.97;;;3.58;;
16352;SDS011;8286;51.274;9.542;2022-07-22T01:03:45;7.65;;;3.78;;
16352;SDS011;8286;51.274;9.542;2022-07-22T01:06:12;4.40;;;4.00;;
16352;SDS011;8286;51.274;9.542;2022-07-22T01:08:38;5.63;;;3.60;;
16352;SDS011;8286;51.274;9.542;2022-07-22T01:11:07;4.10;;;3.08;;
16352;SDS011;8286;51.274;9.542;2022-07-22T01:13:35;4.15;;;3.75;;
16352;SDS011;8286;51.274;9.542;2022-07-22T01:16:02;5.57;;;3.85;;
16352;SDS011;8286;51.274;9.542;2022-07-22T01:18:29;3.10;;;2.80;;
16352;SDS011;8286;51.274;9.542;2022-07-22T01:20:57;5.55;;;2.83;;
16352;SDS011;8286;51.274;9.542;2022-07-22T01:23:24;3.67;;;3.15;;
16352;SDS011;8286;51.274;9.542;2022-07-22T01:25:51;4.32;;;3.40;;
16352;SDS011;8286;51.274;9.542;2022-07-22T01:28:18;2.92;;;2.63;;
16352;SDS011;8286;51.274;9.542;2022-07-22T01:30:44;7.63;;;2.80;;
16352;SDS011;8286;51.274;9.542;2022-07-22T01:33:11;3.28;;;2.58;;
16352;SDS011;8286;51.274;9.542;2022-07-22T01:35:38;2.53;;;2.35;;
16352;SDS011;8286;51.274;9.542;2022-07-22T01:38:06;2.25;;;2.10;;
16352;SDS011;8286;51.274;9.542;2022-07-22T01:40:33;3.28;;;2.03;;
16352;SDS011;8286;51.274;9.542;2022-07-22T01:43:00;2.00;;;1.90;;
16352;SDS011;8286;51.274;9.542;2022-07-22T01:45:27;1.75;;;1.65;;
16352;SDS011;8286;51.274;9.542;2022-07-22T01:47:53;4.15;;;2.45;;
16352;SDS011;8286;51.274;9.542;2022-07-22T01:50:20;3.15;;;2.00;;
16352;SDS011;8286;51.274;9.542;2022-07-22T01:52:47;1.77;;;1.67;;
16352;SDS011;8286;51.274;9.542;2022-07-22T01:55:15;2.38;;;1.50;;
16352;SDS011;8286;51.274;9.542;2022-07-22T01:57:42;1.60;;;1.50;;
16352;SDS011;8286;51.274;9.542;2022-07-22T02:00:09;1.70;;;1.60;;
16352;SDS011;8286;51.274;9.542;2022-07-22T02:02:37;1.60;;;1.50;;
16352;SDS011;8286;51.274;9.542;2022-07-22T02:05:04;1.85;;;1.75;;
16352;SDS011;8286;51.274;9.542;2022-07-22T02:07:31;1.77;;;1.67;;
16352;SDS011;8286;51.274;9.542;2022-07-22T02:09:58;2.85;;;1.52;;
16352;SDS011;8286;51.274;9.542;2022-07-22T02:12:26;4.70;;;2.03;;
16352;SDS011;8286;51.274;9.542;2022-07-22T02:14:53;2.38;;;1.55;;
16352;SDS011;8286;51.274;9.542;2022-07-22T02:17:20;3.30;;;1.70;;
16352;SDS011;8286;51.274;9.542;2022-07-22T02:19:46;1.60;;;1.50;;
16352;SDS011;8286;51.274;9.542;2022-07-22T02:22:13;1.50;;;1.40;;
16352;SDS011;8286;51.274;9.542;2022-07-22T02:24:40;1.30;;;1.27;;
16352;SDS011;8286;51.274;9.542;2022-07-22T02:27:06;1.40;;;1.30;;
16352;SDS011;8286;51.274;9.542;2022-07-22T02:29:35;1.52;;;1.42;;
16352;SDS011;8286;51.274;9.542;2022-07-22T02:32:01;1.73;;;1.23;;
16352;SDS011;8286;51.274;9.542;2022-07-22T02:34:29;1.20;;;1.10;;
16352;SDS011;8286;51.274;9.542;2022-07-22T02:36:55;1.38;;;1.27;;
16352;SDS011;8286;51.274;9.542;2022-07-22T02:39:22;1.80;;;1.60;;
16352;SDS011;8286;51.274;9.542;2022-07-22T02:41:49;1.80;;;1.70;;
16352;SDS011;8286;51.274;9.542;2022-07-22T02:44:15;1.70;;;1.30;;
16352;SDS011;8286;51.274;9.542;2022-07-22T02:46:44;1.30;;;1.20;;
16352;SDS011;8286;51.274;9.542;2022-07-22T02:49:10;1.50;;;1.40;;
16352;SDS011;8286;51.274;9.542;2022-07-22T02:51:37;2.30;;;1.50;;
16352;SDS011;8286;51.274;9.542;2022-07-22T02:54:04;2.78;;;1.70;;
16352;SDS011;8286;51.274;9.542;2022-07-22T02:56:30;1.40;;;1.30;;
16352;SDS011;8286;51.274;9.542;2022-07-22T02:58:57;1.65;;;1.55;;
16352;SDS011;8286;51.274;9.542;2022-07-22T03:01:23;1.70;;;1.60;;
16352;SDS011;8286;51.274;9.542;2022-07-22T03:03:52;1.58;;;1.48;;
16352;SDS011;8286;51.274;9.542;2022-07-22T03:06:18;1.60;;;1.50;;
16352;SDS011;8286;51.274;9.542;2022-07-22T03:08:46;1.80;;;1.70;;
16352;SDS011;8286;51.274;9.542;2022-07-22T03:11:13;2.00;;;1.90;;
16352;SDS011;8286;51.274;9.542;2022-07-22T03:13:39;2.22;;;1.80;;
16352;SDS011;8286;51.274;9.542;2022-07-22T03:16:06;1.73;;;1.63;;
16352;SDS011;8286;51.274;9.542;2022-07-22T03:18:33;1.60;;;1.50;;
16352;SDS011;8286;51.274;9.542;2022-07-22T03:21:01;1.40;;;1.30;;
16352;SDS011;8286;51.274;9.542;2022-07-22T03:23:28;2.53;;;1.40;;
16352;SDS011;8286;51.274;9.542;2022-07-22T03:25:55;1.17;;;1.17;;
16352;SDS011;8286;51.274;9.542;2022-07-22T03:28:22;1.30;;;1.20;;
16352;SDS011;8286;51.274;9.542;2022-07-22T03:30:49;1.70;;;1.40;;
16352;SDS011;8286;51.274;9.542;2022-07-22T03:33:15;1.33;;;1.23;;
16352;SDS011;8286;51.274;9.542;2022-07-22T03:35:42;1.33;;;1.13;;
16352;SDS011;8286;51.274;9.542;2022-07-22T03:38:10;1.10;;;1.10;;
16352;SDS011;8286;51.274;9.542;2022-07-22T03:40:37;1.00;;;1.00;;
16352;SDS011;8286;51.274;9.542;2022-07-22T03:43:03;3.72;;;1.60;;
16352;SDS011;8286;51.274;9.542;2022-07-22T03:45:31;1.42;;;1.33;;
16352;SDS011;8286;51.274;9.542;2022-07-22T03:47:58;2.08;;;1.33;;
16352;SDS011;8286;51.274;9.542;2022-07-22T03:50:25;1.05;;;1.05;;
16352;SDS011;8286;51.274;9.542;2022-07-22T03:52:52;1.85;;;1.30;;
16352;SDS011;8286;51.274;9.542;2022-07-22T03:55:20;1.13;;;1.10;;
16352;SDS011;8286;51.274;9.542;2022-07-22T03:57:47;1.20;;;1.20;;
16352;SDS011;8286;51.274;9.542;2022-07-22T04:00:14;1.73;;;1.63;;
16352;SDS011;8286;51.274;9.542;2022-07-22T04:02:40;1.50;;;1.20;;
16352;SDS011;8286;51.274;9.542;2022-07-22T04:05:07;1.20;;;1.20;;
16352;SDS011;8286;51.274;9.542;2022-07-22T04:07:34;1.88;;;1.70;;
16352;SDS011;8286;51.274;9.542;2022-07-22T04:10:01;1.48;;;1.38;;
16352;SDS011;8286;51.274;9.542;2022-07-22T04:12:32;1.40;;;1.17;;
16352;SDS011;8286;51.274;9.542;2022-07-22T04:14:59;2.28;;;1.42;;
16352;SDS011;8286;51.274;9.542;2022-07-22T04:17:26;1.63;;;1.45;;
16352;SDS011;8286;51.274;9.542;2022-07-22T04:19:53;1.63;;;1.52;;
16352;SDS011;8286;51.274;9.542;2022-07-22T04:22:19;2.08;;;1.50;;
16352;SDS011;8286;51.274;9.542;2022-07-22T04:24:46;2.05;;;1.73;;
16352;SDS011;8286;51.274;9.542;2022-07-22T04:27:12;3.00;;;1.65;;
16352;SDS011;8286;51.274;9.542;2022-07-22T04:29:40;2.80;;;1.70;;
16352;SDS011;8286;51.274;9.542;2022-07-22T04:32:07;2.15;;;1.80;;
16352;SDS011;8286;51.274;9.542;2022-07-22T04:34:34;2.63;;;2.17;;
16352;SDS011;8286;51.274;9.542;2022-07-22T04:37:00;2.38;;;1.80;;
16352;SDS011;8286;51.274;9.542;2022-07-22T04:39:27;2.15;;;1.98;;
16352;SDS011;8286;51.274;9.542;2022-07-22T04:41:54;2.00;;;1.90;;
16352;SDS011;8286;51.274;9.542;2022-07-22T04:44:20;2.40;;;2.08;;
16352;SDS011;8286;51.274;9.542;2022-07-22T04:46:49;2.50;;;2.30;;
16352;SDS011;8286;51.274;9.542;2022-07-22T04:49:15;2.20;;;2.00;;
16352;SDS011;8286;51.274;9.542;2022-07-22T04:51:42;2.30;;;1.88;;
16352;SDS011;8286;51.274;9.542;2022-07-22T04:54:08;2.17;;;1.95;;
16352;SDS011;8286;51.274;9.542;2022-07-22T04:56:35;2.28;;;2.08;;
16352;SDS011;8286;51.274;9.542;2022-07-22T04:59:02;6.10;;;1.90;;
16352;SDS011;8286;51.274;9.542;2022-07-22T05:01:28;1.45;;;1.35;;
16352;SDS011;8286;51.274;9.542;2022-07-22T05:03:56;1.95;;;1.50;;
16352;SDS011;8286;51.274;9.542;2022-07-22T05:06:23;2.67;;;2.08;;
16352;SDS011;8286;51.274;9.542;2022-07-22T05:08:50;2.30;;;2.10;;
16352;SDS011;8286;51.274;9.542;2022-07-22T05:11:17;2.15;;;2.00;;
16352;SDS011;8286;51.274;9.542;2022-07-22T05:13:44;2.88;;;2.00;;
16352;SDS011;8286;51.274;9.542;2022-07-22T05:16:10;2.40;;;2.20;;
16352;SDS011;8286;51.274;9.542;2022-07-22T05:18:37;3.28;;;2.30;;
16352;SDS011;8286;51.274;9.542;2022-07-22T05:21:05;2.22;;;2.13;;
16352;SDS011;8286;51.274;9.542;2022-07-22T05:23:32;1.95;;;1.67;;
16352;SDS011;8286;51.274;9.542;2022-07-22T05:25:58;2.35;;;1.90;;
16352;SDS011;8286;51.274;9.542;2022-07-22T05:28:25;1.63;;;1.52;;
16352;SDS011;8286;51.274;9.542;2022-07-22T05:30:52;1.63;;;1.52;;
16352;SDS011;8286;51.274;9.542;2022-07-22T05:33:18;1.70;;;1.60;;
16352;SDS011;8286;51.274;9.542;2022-07-22T05:35:45;3.08;;;1.60;;
16352;SDS011;8286;51.274;9.542;2022-07-22T05:38:13;2.20;;;2.00;;
16352;SDS011;8286;51.274;9.542;2022-07-22T05:40:40;2.33;;;1.95;;
16352;SDS011;8286;51.274;9.542;2022-07-22T05:43:06;2.72;;;1.92;;
16352;SDS011;8286;51.274;9.542;2022-07-22T05:45:33;1.80;;;1.70;;
16352;SDS011;8286;51.274;9.542;2022-07-22T05:48:00;2.42;;;1.90;;
16352;SDS011;8286;51.274;9.542;2022-07-22T05:50:27;2.15;;;2.03;;
16352;SDS011;8286;51.274;9.542;2022-07-22T05:52:53;2.17;;;1.98;;
16352;SDS011;8286;51.274;9.542;2022-07-22T05:55:22;3.08;;;2.40;;
16352;SDS011;8286;51.274;9.542;2022-07-22T05:57:48;2.35;;;2.15;;
16352;SDS011;8286;51.274;9.542;2022-07-22T06:00:15;2.40;;;2.20;;
16352;SDS011;8286;51.274;9.542;2022-07-22T06:02:42;1.83;;;1.73;;
16352;SDS011;8286;51.274;9.542;2022-07-22T06:05:09;4.47;;;2.13;;
16352;SDS011;8286;51.274;9.542;2022-07-22T06:07:36;2.83;;;2.63;;
16352;SDS011;8286;51.274;9.542;2022-07-22T06:10:03;3.58;;;1.90;;
16352;SDS011;8286;51.274;9.542;2022-07-22T06:12:32;3.47;;;2.08;;
16352;SDS011;8286;51.274;9.542;2022-07-22T06:14:58;3.63;;;1.80;;
16352;SDS011;8286;51.274;9.542;2022-07-22T06:17:25;3.28;;;2.10;;
16352;SDS011;8286;51.274;9.542;2022-07-22T06:19:52;2.33;;;2.00;;
16352;SDS011;8286;51.274;9.542;2022-07-22T06:22:18;3.90;;;2.25;;
16352;SDS011;8286;51.274;9.542;2022-07-22T06:24:45;3.58;;;2.60;;
16352;SDS011;8286;51.274;9.542;2022-07-22T06:27:12;3.40;;;2.20;;
16352;SDS011;8286;51.274;9.542;2022-07-22T06:29:40;1.98;;;1.88;;
16352;SDS011;8286;51.274;9.542;2022-07-22T06:32:07;2.35;;;2.15;;
16352;SDS011;8286;51.274;9.542;2022-07-22T06:34:34;2.03;;;1.92;;
16352;SDS011;8286;51.274;9.542;2022-07-22T06:37:00;3.25;;;2.33;;
16352;SDS011;8286;51.274;9.542;2022-07-22T06:39:27;2.10;;;1.98;;
16352;SDS011;8286;51.274;9.542;2022-07-22T06:41:54;2.78;;;2.55;;
16352;SDS011;8286;51.274;9.542;2022-07-22T06:44:20;2.50;;;2.30;;
16352;SDS011;8286;51.274;9.542;2022-07-22T06:46:48;2.33;;;2.13;;
16352;SDS011;8286;51.274;9.542;2022-07-22T06:49:15;5.50;;;3.25;;
16352;SDS011;8286;51.274;9.542;2022-07-22T06:51:42;2.78;;;2.55;;
16352;SDS011;8286;51.274;9.542;2022-07-22T06:54:08;2.58;;;2.38;;
16352;SDS011;8286;51.274;9.542;2022-07-22T06:56:35;3.33;;;2.80;;
16352;SDS011;8286;51.274;9.542;2022-07-22T06:59:02;2.58;;;2.38;;
16352;SDS011;8286;51.274;9.542;2022-07-22T07:01:28;2.50;;;2.30;;
16352;SDS011;8286;51.274;9.542;2022-07-22T07:03:57;2.63;;;2.42;;
16352;SDS011;8286;51.274;9.542;2022-07-22T07:06:23;3.15;;;2.60;;
16352;SDS011;8286;51.274;9.542;2022-07-22T07:08:50;2.92;;;2.72;;
16352;SDS011;8286;51.274;9.542;2022-07-22T07:11:17;3.50;;;2.42;;
16352;SDS011;8286;51.274;9.542;2022-07-22T07:13:43;2.80;;;2.60;;
16352;SDS011;8286;51.274;9.542;2022-07-22T07:16:10;2.65;;;2.42;;
16352;SDS011;8286;51.274;9.542;2022-07-22T07:18:37;2.80;;;2.60;;
16352;SDS011;8286;51.274;9.542;2022-07-22T07:21:05;2.88;;;2.67;;
16352;SDS011;8286;51.274;9.542;2022-07-22T07:23:32;2.83;;;2.58;;
16352;SDS011;8286;51.274;9.542;2022-07-22T07:25:59;2.80;;;2.60;;
16352;SDS011;8286;51.274;9.542;2022-07-22T07:28:25;3.65;;;2.50;;
16352;SDS011;8286;51.274;9.542;2022-07-22T07:30:52;2.80;;;2.60;;
16352;SDS011;8286;51.274;9.542;2022-07-22T07:33:19;3.20;;;2.90;;
16352;SDS011;8286;51.274;9.542;2022-07-22T07:35:45;2.83;;;2.63;;
16352;SDS011;8286;51.274;9.542;2022-07-22T07:38:14;3.10;;;2.70;;
16352;SDS011;8286;51.274;9.542;2022-07-22T07:40:40;3.10;;;2.80;;
16352;SDS011;8286;51.274;9.542;2022-07-22T07:43:07;3.05;;;2.42;;
16352;SDS011;8286;51.274;9.542;2022-07-22T07:45:34;3.00;;;2.80;;
16352;SDS011;8286;51.274;9.542;2022-07-22T07:48:01;2.80;;;2.60;;
16352;SDS011;8286;51.274;9.542;2022-07-22T07:50:29;3.85;;;2.50;;
16352;SDS011;8286;51.274;9.542;2022-07-22T07:52:56;3.28;;;2.83;;
16352;SDS011;8286;51.274;9.542;2022-07-22T07:55:24;3.72;;;2.53;;
16352;SDS011;8286;51.274;9.542;2022-07-22T07:57:51;3.55;;;2.53;;
16352;SDS011;8286;51.274;9.542;2022-07-22T08:00:20;2.97;;;2.67;;
16352;SDS011;8286;51.274;9.542;2022-07-22T08:02:48;2.63;;;2.42;;
16352;SDS011;8286;51.274;9.542;2022-07-22T08:05:15;2.75;;;1.98;;
16352;SDS011;8286;51.274;9.542;2022-07-22T08:07:41;2.55;;;2.35;;
16352;SDS011;8286;51.274;9.542;2022-07-22T08:10:08;2.20;;;2.10;;
16352;SDS011;8286;51.274;9.542;2022-07-22T08:12:37;2.10;;;2.00;;
16352;SDS011;8286;51.274;9.542;2022-07-22T08:15:04;2.38;;;1.98;;
16352;SDS011;8286;51.274;9.542;2022-07-22T08:17:32;2.88;;;2.35;;
16352;SDS011;8286;51.274;9.542;2022-07-22T08:19:59;2.58;;;2.38;;
16352;SDS011;8286;51.274;9.542;2022-07-22T08:22:26;2.28;;;2.17;;
16352;SDS011;8286;51.274;9.542;2022-07-22T08:24:52;2.45;;;2.25;;
16352;SDS011;8286;51.274;9.542;2022-07-22T08:27:19;2.70;;;2.50;;
16352;SDS011;8286;51.274;9.542;2022-07-22T08:29:47;2.83;;;2.38;;
16352;SDS011;8286;51.274;9.542;2022-07-22T08:32:14;2.33;;;2.22;;
16352;SDS011;8286;51.274;9.542;2022-07-22T08:34:41;2.42;;;2.33;;
16352;SDS011;8286;51.274;9.542;2022-07-22T08:37:07;4.20;;;2.38;;
16352;SDS011;8286;51.274;9.542;2022-07-22T08:39:34;3.17;;;2.20;;
16352;SDS011;8286;51.274;9.542;2022-07-22T08:42:01;2.53;;;2.33;;
16352;SDS011;8286;51.274;9.542;2022-07-22T08:44:28;2.60;;;2.40;;
16352;SDS011;8286;51.274;9.542;2022-07-22T08:46:57;2.65;;;2.35;;
16352;SDS011;8286;51.274;9.542;2022-07-22T08:49:24;2.55;;;2.33;;
16352;SDS011;8286;51.274;9.542;2022-07-22T08:51:51;2.92;;;2.60;;
16352;SDS011;8286;51.274;9.542;2022-07-22T08:54:18;2.83;;;2.63;;
16352;SDS011;8286;51.274;9.542;2022-07-22T08:56:45;5.07;;;3.20;;
16352;SDS011;8286;51.274;9.542;2022-07-22T08:59:12;2.70;;;2.50;;
16352;SDS011;8286;51.274;9.542;2022-07-22T09:01:39;4.22;;;2.60;;
16352;SDS011;8286;51.274;9.542;2022-07-22T09:04:31;4.22;;;2.72;;
16352;SDS011;8286;51.274;9.542;2022-07-22T09:06:58;2.80;;;2.53;;
16352;SDS011;8286;51.274;9.542;2022-07-22T09:09:31;2.70;;;2.50;;
16352;SDS011;8286;51.274;9.542;2022-07-22T09:12:05;2.35;;;2.13;;
16352;SDS011;8286;51.274;9.542;2022-07-22T09:14:42;2.63;;;2.35;;
16352;SDS011;8286;51.274;9.542;2022-07-22T09:17:23;2.53;;;2.35;;
16352;SDS011;8286;51.274;9.542;2022-07-22T09:19:50;2.35;;;2.20;;
16352;SDS011;8286;51.274;9.542;2022-07-22T09:22:29;2.20;;;2.00;;
16352;SDS011;8286;51.274;9.542;2022-07-22T09:24:58;2.67;;;2.47;;
16352;SDS011;8286;51.274;9.542;2022-07-22T09:27:25;2.45;;;2.25;;
16352;SDS011;8286;51.274;9.542;2022-07-22T09:29:52;2.70;;;2.40;;
16352;SDS011;8286;51.274;9.542;2022-07-22T09:32:22;3.92;;;2.58;;
16352;SDS011;8286;51.274;9.542;2022-07-22T09:34:49;2.80;;;2.60;;
16352;SDS011;8286;51.274;9.542;2022-07-22T09:37:16;4.82;;;2.97;;
16352;SDS011;8286;51.274;9.542;2022-07-22T09:39:43;2.70;;;2.50;;
16352;SDS011;8286;51.274;9.542;2022-07-22T09:42:10;2.63;;;2.42;;
16352;SDS011;8286;51.274;9.542;2022-07-22T09:44:36;2.67;;;2.47;;
16352;SDS011;8286;51.274;9.542;2022-07-22T09:47:03;3.30;;;2.50;;
16352;SDS011;8286;51.274;9.542;2022-07-22T09:49:32;2.80;;;2.60;;
16352;SDS011;8286;51.274;9.542;2022-07-22T09:51:59;2.60;;;2.40;;
16352;SDS011;8286;51.274;9.542;2022-07-22T09:54:26;2.47;;;2.28;;
16352;SDS011;8286;51.274;9.542;2022-07-22T09:56:55;2.35;;;2.15;;
16352;SDS011;8286;51.274;9.542;2022-07-22T09:59:22;2.60;;;2.45;;
16352;SDS011;8286;51.274;9.542;2022-07-22T10:01:50;2.80;;;2.60;;
16352;SDS011;8286;51.274;9.542;2022-07-22T10:04:17;4.35;;;2.58;;
16352;SDS011;8286;51.274;9.542;2022-07-22T10:06:47;2.17;;;2.08;;
16352;SDS011;8286;51.274;9.542;2022-07-22T10:09:14;2.70;;;2.50;;
16352;SDS011;8286;51.274;9.542;2022-07-22T10:11:43;4.00;;;2.22;;
16352;SDS011;8286;51.274;9.542;2022-07-22T10:14:12;2.67;;;2.50;;
16352;SDS011;8286;51.274;9.542;2022-07-22T10:16:39;2.45;;;2.25;;
16352;SDS011;8286;51.274;9.542;2022-07-22T10:19:06;3.58;;;2.25;;
16352;SDS011;8286;51.274;9.542;2022-07-22T10:21:33;2.40;;;2.20;;
16352;SDS011;8286;51.274;9.542;2022-07-22T10:24:08;2.30;;;1.90;;
16352;SDS011;8286;51.274;9.542;2022-07-22T10:29:27;2.58;;;2.35;;
16352;SDS011;8286;51.274;9.542;2022-07-22T10:38:01;2.20;;;2.10;;
16352;SDS011;8286;51.274;9.542;2022-07-22T10:40:32;2.00;;;1.90;;
16352;SDS011;8286;51.274;9.542;2022-07-22T10:43:12;2.63;;;2.40;;
16352;SDS011;8286;51.274;9.542;2022-07-22T10:45:40;4.05;;;2.42;;
16352;SDS011;8286;51.274;9.542;2022-07-22T10:48:11;2.38;;;2.28;;
16352;SDS011;8286;51.274;9.542;2022-07-22T10:50:39;2.22;;;2.13;;
16352;SDS011;8286;51.274;9.542;2022-07-22T10:53:17;2.40;;;2.17;;
16352;SDS011;8286;51.274;9.542;2022-07-22T10:56:00;2.97;;;2.33;;
16352;SDS011;8286;51.274;9.542;2022-07-22T10:58:41;2.90;;;2.58;;
16352;SDS011;8286;51.274;9.542;2022-07-22T11:01:10;4.93;;;2.40;;
16352;SDS011;8286;51.274;9.542;2022-07-22T11:03:38;2.30;;;2.20;;
16352;SDS011;8286;51.274;9.542;2022-07-22T11:06:23;4.05;;;2.63;;
16352;SDS011;8286;51.274;9.542;2022-07-22T11:08:53;3.38;;;3.03;;
16352;SDS011;8286;51.274;9.542;2022-07-22T11:11:35;2.50;;;2.30;;
16352;SDS011;8286;51.274;9.542;2022-07-22T11:14:12;3.55;;;2.15;;
16352;SDS011;8286;51.274;9.542;2022-07-22T11:16:40;2.25;;;2.05;;
16352;SDS011;8286;51.274;9.542;2022-07-22T11:19:07;3.60;;;2.33;;
16352;SDS011;8286;51.274;9.542;2022-07-22T11:21:34;2.70;;;2.50;;
16352;SDS011;8286;51.274;9.542;2022-07-22T11:24:02;3.28;;;2.60;;
16352;SDS011;8286;51.274;9.542;2022-07-22T11:26:33;5.28;;;2.53;;
16352;SDS011;8286;51.274;9.542;2022-07-22T11:29:02;3.67;;;2.55;;
16352;SDS011;8286;51.274;9.542;2022-07-22T11:31:29;3.58;;;3.28;;
16352;SDS011;8286;51.274;9.542;2022-07-22T11:34:03;2.45;;;2.30;;
16352;SDS011;8286;51.274;9.542;2022-07-22T11:36:31;2.55;;;2.35;;
16352;SDS011;8286;51.274;9.542;2022-07-22T11:38:58;2.70;;;2.50;;
16352;SDS011;8286;51.274;9.542;2022-07-22T11:41:25;3.20;;;2.60;;
16352;SDS011;8286;51.274;9.542;2022-07-22T11:43:56;2.97;;;2.75;;
16352;SDS011;8286;51.274;9.542;2022-07-22T11:46:23;2.50;;;2.30;;
16352;SDS011;8286;51.274;9.542;2022-07-22T11:48:51;2.47;;;2.28;;
16352;SDS011;8286;51.274;9.542;2022-07-22T11:51:18;2.90;;;2.50;;
16352;SDS011;8286;51.274;9.542;2022-07-22T11:53:45;2.60;;;2.40;;
16352;SDS011;8286;51.274;9.542;2022-07-22T11:56:11;3.00;;;2.80;;
16352;SDS011;8286;51.274;9.542;2022-07-22T11:58:40;2.55;;;2.35;;
16352;SDS011;8286;51.274;9.542;2022-07-22T12:01:09;3.97;;;2.70;;
16352;SDS011;8286;51.274;9.542;2022-07-22T12:03:37;3.00;;;2.70;;
16352;SDS011;8286;51.274;9.542;2022-07-22T12:06:06;2.50;;;2.30;;
16352;SDS011;8286;51.274;9.542;2022-07-22T12:08:34;3.05;;;2.85;;
16352;SDS011;8286;51.274;9.542;2022-07-22T12:11:05;3.42;;;3.03;;
16352;SDS011;8286;51.274;9.542;2022-07-22T12:13:31;3.22;;;2.75;;
16352;SDS011;8286;51.274;9.542;2022-07-22T12:15:58;2.80;;;2.60;;
16352;SDS011;8286;51.274;9.542;2022-07-22T12:18:27;3.40;;;3.13;;
16352;SDS011;8286;51.274;9.542;2022-07-22T12:20:54;2.65;;;2.45;;
16352;SDS011;8286;51.274;9.542;2022-07-22T12:23:22;3.42;;;2.63;;
16352;SDS011;8286;51.274;9.542;2022-07-22T12:25:50;2.92;;;2.72;;
16352;SDS011;8286;51.274;9.542;2022-07-22T12:28:18;3.70;;;2.75;;
16352;SDS011;8286;51.274;9.542;2022-07-22T12:30:45;6.25;;;2.90;;
16352;SDS011;8286;51.274;9.542;2022-07-22T12:33:15;3.67;;;2.60;;
16352;SDS011;8286;51.274;9.542;2022-07-22T12:35:43;3.55;;;2.90;;
16352;SDS011;8286;51.274;9.542;2022-07-22T12:38:10;3.15;;;2.85;;
16352;SDS011;8286;51.274;9.542;2022-07-22T12:40:37;3.45;;;3.15;;
16352;SDS011;8286;51.274;9.542;2022-07-22T12:43:05;3.08;;;2.88;;
16352;SDS011;8286;51.274;9.542;2022-07-22T12:45:34;2.47;;;2.30;;
16352;SDS011;8286;51.274;9.542;2022-07-22T12:48:06;3.40;;;3.10;;
16352;SDS011;8286;51.274;9.542;2022-07-22T12:50:33;7.07;;;2.70;;
16352;SDS011;8286;51.274;9.542;2022-07-22T12:53:04;4.35;;;2.90;;
16352;SDS011;8286;51.274;9.542;2022-07-22T12:55:32;4.18;;;2.83;;
16352;SDS011;8286;51.274;9.542;2022-07-22T12:58:00;3.05;;;2.85;;
16352;SDS011;8286;51.274;9.542;2022-07-22T13:00:27;3.05;;;2.67;;
16352;SDS011;8286;51.274;9.542;2022-07-22T13:02:55;3.42;;;3.13;;
16352;SDS011;8286;51.274;9.542;2022-07-22T13:05:22;3.10;;;2.90;;
16352;SDS011;8286;51.274;9.542;2022-07-22T13:07:49;3.65;;;3.25;;
16352;SDS011;8286;51.274;9.542;2022-07-22T13:10:19;4.45;;;3.10;;
16352;SDS011;8286;51.274;9.542;2022-07-22T13:12:47;3.72;;;3.38;;
16352;SDS011;8286;51.274;9.542;2022-07-22T13:15:13;4.72;;;3.38;;
16352;SDS011;8286;51.274;9.542;2022-07-22T13:17:40;3.50;;;3.20;;
16352;SDS011;8286;51.274;9.542;2022-07-22T13:20:08;3.45;;;3.15;;
16352;SDS011;8286;51.274;9.542;2022-07-22T13:22:35;3.47;;;3.20;;
16352;SDS011;8286;51.274;9.542;2022-07-22T13:25:02;3.72;;;3.38;;
16352;SDS011;8286;51.274;9.542;2022-07-22T13:27:31;3.38;;;3.08;;
16352;SDS011;8286;51.274;9.542;2022-07-22T13:29:58;3.20;;;2.90;;
16352;SDS011;8286;51.274;9.542;2022-07-22T13:32:24;7.78;;;4.18;;
16352;SDS011;8286;51.274;9.542;2022-07-22T13:34:51;4.00;;;3.60;;
16352;SDS011;8286;51.274;9.542;2022-07-22T13:37:18;4.15;;;3.75;;
16352;SDS011;8286;51.274;9.542;2022-07-22T13:39:46;3.55;;;3.25;;
16352;SDS011;8286;51.274;9.542;2022-07-22T13:42:13;5.05;;;3.38;;
16352;SDS011;8286;51.274;9.542;2022-07-22T13:44:43;5.60;;;3.15;;
16352;SDS011;8286;51.274;9.542;2022-07-22T13:47:10;4.25;;;2.92;;
16352;SDS011;8286;51.274;9.542;2022-07-22T13:49:37;3.92;;;3.53;;
16352;SDS011;8286;51.274;9.542;2022-07-22T13:52:04;9.38;;;3.45;;
16352;SDS011;8286;51.274;9.542;2022-07-22T13:54:31;3.65;;;2.90;;
16352;SDS011;8286;51.274;9.542;2022-07-22T13:56:58;6.07;;;3.05;;
16352;SDS011;8286;51.274;9.542;2022-07-22T13:59:25;3.70;;;3.40;;
16352;SDS011;8286;51.274;9.542;2022-07-22T14:01:53;3.58;;;3.10;;
16352;SDS011;8286;51.274;9.542;2022-07-22T14:04:20;4.13;;;3.30;;
16352;SDS011;8286;51.274;9.542;2022-07-22T14:06:46;6.00;;;3.33;;
16352;SDS011;8286;51.274;9.542;2022-07-22T14:09:13;5.97;;;3.45;;
16352;SDS011;8286;51.274;9.542;2022-07-22T14:11:40;4.10;;;3.45;;
16352;SDS011;8286;51.274;9.542;2022-07-22T14:14:06;3.90;;;3.50;;
16352;SDS011;8286;51.274;9.542;2022-07-22T14:16:34;6.57;;;3.30;;
16352;SDS011;8286;51.274;9.542;2022-07-22T14:19:04;3.78;;;3.47;;
16352;SDS011;8286;51.274;9.542;2022-07-22T14:21:32;4.38;;;3.50;;
16352;SDS011;8286;51.274;9.542;2022-07-22T14:23:58;3.40;;;3.10;;
16352;SDS011;8286;51.274;9.542;2022-07-22T14:26:25;3.97;;;3.58;;
16352;SDS011;8286;51.274;9.542;2022-07-22T14:28:52;5.50;;;3.75;;
16352;SDS011;8286;51.274;9.542;2022-07-22T14:31:19;7.10;;;3.42;;
16352;SDS011;8286;51.274;9.542;2022-07-22T14:33:45;5.60;;;3.33;;
16352;SDS011;8286;51.274;9.542;2022-07-22T14:36:14;3.78;;;3.47;;
16352;SDS011;8286;51.274;9.542;2022-07-22T14:38:41;3.83;;;3.28;;
16352;SDS011;8286;51.274;9.542;2022-07-22T14:41:07;4.32;;;3.60;;
16352;SDS011;8286;51.274;9.542;2022-07-22T14:43:34;4.60;;;3.20;;
16352;SDS011;8286;51.274;9.542;2022-07-22T14:46:01;3.63;;;3.17;;
16352;SDS011;8286;51.274;9.542;2022-07-22T14:48:29;3.80;;;3.40;;
16352;SDS011;8286;51.274;9.542;2022-07-22T14:50:56;5.13;;;3.33;;
16352;SDS011;8286;51.274;9.542;2022-07-22T14:53:24;3.20;;;3.00;;
16352;SDS011;8286;51.274;9.542;2022-07-22T14:55:50;3.80;;;3.50;;
16352;SDS011;8286;51.274;9.542;2022-07-22T14:58:17;3.55;;;3.25;;
16352;SDS011;8286;51.274;9.542;2022-07-22T15:00:44;7.50;;;3.53;;
16352;SDS011;8286;51.274;9.542;2022-07-22T15:03:11;3.78;;;3.17;;
16352;SDS011;8286;51.274;9.542;2022-07-22T15:05:38;4.45;;;3.35;;
16352;SDS011;8286;51.274;9.542;2022-07-22T15:08:06;4.90;;;3.45;;
16352;SDS011;8286;51.274;9.542;2022-07-22T15:10:34;5.60;;;3.70;;
16352;SDS011;8286;51.274;9.542;2022-07-22T15:13:01;3.88;;;3.40;;